sensor_id;sensor_type;location;lat;lon;timestamp;temperature;humidity
52127;DHT22;38120;53.176;6.614;2022-09-09T00:04:00;15.00;99.90
52127;DHT22;38120;53.176;6.614;2022-09-09T00:06:31;15.00;99.90
52127;DHT22;38120;53.176;6.614;2022-09-09T00:09:04;15.00;99.90
52127;DHT22;38120;53.176;6.614;2022-09-09T00:12:02;15.00;99.90
52127;DHT22;38120;53.176;6.614;2022-09-09T00:14:42;15.00;99.90
52127;DHT22;38120;53.176;6.614;2022-09-09T00:17:39;14.90;99.90
52127;DHT22;38120;53.176;6.614;2022-09-09T00:25:30;14.90;99.90
52127;DHT22;38120;53.176;6.614;2022-09-09T00:27:57;14.90;99.90
52127;DHT22;38120;53.176;6.614;2022-09-09T00:30:34;14.80;99.90
52127;DHT22;38120;53.176;6.614;2022-09-09T00:33:08;14.80;99.90
52127;DHT22;38120;53.176;6.614;2022-09-09T00:35:40;14.80;99.90
52127;DHT22;38120;53.176;6.614;2022-09-09T00:38:14;14.80;99.90
52127;DHT22;38120;53.176;6.614;2022-09-09T00:40:52;14.90;99.90
52127;DHT22;38120;53.176;6.614;2022-09-09T00:43:32;14.80;99.90
52127;DHT22;38120;53.176;6.614;2022-09-09T00:52:08;14.70;99.90
52127;DHT22;38120;53.176;6.614;2022-09-09T00:54:53;14.70;99.90
52127;DHT22;38120;53.176;6.614;2022-09-09T00:57:30;14.70;99.90
52127;DHT22;38120;53.176;6.614;2022-09-09T01:00:16;14.70;99.90
52127;DHT22;38120;53.176;6.614;2022-09-09T01:08:02;14.70;99.90
52127;DHT22;38120;53.176;6.614;2022-09-09T01:10:49;14.60;99.90
52127;DHT22;38120;53.176;6.614;2022-09-09T01:13:44;14.60;99.90
52127;DHT22;38120;53.176;6.614;2022-09-09T01:16:12;14.60;99.90
52127;DHT22;38120;53.176;6.614;2022-09-09T01:18:44;14.60;99.90
52127;DHT22;38120;53.176;6.614;2022-09-09T01:23:57;14.60;99.90
52127;DHT22;38120;53.176;6.614;2022-09-09T01:28:55;14.50;99.90
52127;DHT22;38120;53.176;6.614;2022-09-09T01:31:33;14.50;99.90
52127;DHT22;38120;53.176;6.614;2022-09-09T01:34:00;14.50;99.90
52127;DHT22;38120;53.176;6.614;2022-09-09T01:36:34;14.50;99.90
52127;DHT22;38120;53.176;6.614;2022-09-09T01:39:02;14.40;99.90
52127;DHT22;38120;53.176;6.614;2022-09-09T01:41:27;14.40;99.90
52127;DHT22;38120;53.176;6.614;2022-09-09T01:43:54;14.40;99.90
52127;DHT22;38120;53.176;6.614;2022-09-09T01:46:25;14.30;99.90
52127;DHT22;38120;53.176;6.614;2022-09-09T01:48:59;14.40;99.90
52127;DHT22;38120;53.176;6.614;2022-09-09T01:51:26;14.30;99.90
52127;DHT22;38120;53.176;6.614;2022-09-09T01:53:52;14.30;99.90
52127;DHT22;38120;53.176;6.614;2022-09-09T01:56:27;14.30;99.90
52127;DHT22;38120;53.176;6.614;2022-09-09T01:59:18;14.30;99.90
52127;DHT22;38120;53.176;6.614;2022-09-09T02:04:43;14.30;99.90
52127;DHT22;38120;53.176;6.614;2022-09-09T02:10:08;14.30;99.90
52127;DHT22;38120;53.176;6.614;2022-09-09T02:12:36;14.20;99.90
52127;DHT22;38120;53.176;6.614;2022-09-09T02:15:11;14.20;99.90
52127;DHT22;38120;53.176;6.614;2022-09-09T02:17:40;14.30;99.90
52127;DHT22;38120;53.176;6.614;2022-09-09T02:20:12;14.20;99.90
52127;DHT22;38120;53.176;6.614;2022-09-09T02:22:42;14.20;99.90
52127;DHT22;38120;53.176;6.614;2022-09-09T02:25:13;14.20;99.90
52127;DHT22;38120;53.176;6.614;2022-09-09T02:27:41;14.20;99.90
52127;DHT22;38120;53.176;6.614;2022-09-09T02:30:09;14.20;99.90
52127;DHT22;38120;53.176;6.614;2022-09-09T02:32:36;14.20;99.90
52127;DHT22;38120;53.176;6.614;2022-09-09T02:35:09;14.20;99.90
52127;DHT22;38120;53.176;6.614;2022-09-09T02:37:38;14.30;99.90
52127;DHT22;38120;53.176;6.614;2022-09-09T02:40:06;14.20;99.90
52127;DHT22;38120;53.176;6.614;2022-09-09T02:42:39;14.20;99.90
52127;DHT22;38120;53.176;6.614;2022-09-09T02:45:06;14.30;99.90
52127;DHT22;38120;53.176;6.614;2022-09-09T02:47:41;14.30;99.90
52127;DHT22;38120;53.176;6.614;2022-09-09T02:50:18;14.30;99.90
52127;DHT22;38120;53.176;6.614;2022-09-09T02:58:20;14.40;99.90
52127;DHT22;38120;53.176;6.614;2022-09-09T03:00:47;14.40;99.90
52127;DHT22;38120;53.176;6.614;2022-09-09T03:03:14;14.50;99.90
52127;DHT22;38120;53.176;6.614;2022-09-09T03:05:42;14.40;99.90
52127;DHT22;38120;53.176;6.614;2022-09-09T03:08:07;14.50;99.90
52127;DHT22;38120;53.176;6.614;2022-09-09T03:10:34;14.50;99.90
52127;DHT22;38120;53.176;6.614;2022-09-09T03:13:01;14.50;99.90
52127;DHT22;38120;53.176;6.614;2022-09-09T03:15:27;14.50;99.90
52127;DHT22;38120;53.176;6.614;2022-09-09T03:17:55;14.50;99.90
52127;DHT22;38120;53.176;6.614;2022-09-09T03:20:23;14.50;99.90
52127;DHT22;38120;53.176;6.614;2022-09-09T03:22:49;14.50;99.90
52127;DHT22;38120;53.176;6.614;2022-09-09T03:25:15;14.50;99.90
52127;DHT22;38120;53.176;6.614;2022-09-09T03:27:40;13.90;99.90
52127;DHT22;38120;53.176;6.614;2022-09-09T03:30:07;14.60;99.90
52127;DHT22;38120;53.176;6.614;2022-09-09T03:32:32;14.60;99.90
52127;DHT22;38120;53.176;6.614;2022-09-09T03:34:58;14.60;99.90
52127;DHT22;38120;53.176;6.614;2022-09-09T03:37:24;14.60;99.90
52127;DHT22;38120;53.176;6.614;2022-09-09T03:39:49;14.70;99.90
52127;DHT22;38120;53.176;6.614;2022-09-09T03:42:16;14.60;99.90
52127;DHT22;38120;53.176;6.614;2022-09-09T03:44:45;14.60;99.90
52127;DHT22;38120;53.176;6.614;2022-09-09T03:47:20;14.80;99.90
52127;DHT22;38120;53.176;6.614;2022-09-09T03:49:47;14.70;99.90
52127;DHT22;38120;53.176;6.614;2022-09-09T03:52:14;14.70;99.90
52127;DHT22;38120;53.176;6.614;2022-09-09T03:54:41;14.80;99.90
52127;DHT22;38120;53.176;6.614;2022-09-09T03:57:11;14.70;99.90
52127;DHT22;38120;53.176;6.614;2022-09-09T03:59:37;14.70;99.90
52127;DHT22;38120;53.176;6.614;2022-09-09T04:02:03;14.80;99.90
52127;DHT22;38120;53.176;6.614;2022-09-09T04:04:29;14.80;99.90
52127;DHT22;38120;53.176;6.614;2022-09-09T04:06:55;14.80;99.90
52127;DHT22;38120;53.176;6.614;2022-09-09T04:09:21;14.80;99.90
52127;DHT22;38120;53.176;6.614;2022-09-09T04:11:47;14.80;99.90
52127;DHT22;38120;53.176;6.614;2022-09-09T04:14:12;14.90;99.90
52127;DHT22;38120;53.176;6.614;2022-09-09T04:16:39;14.90;99.90
52127;DHT22;38120;53.176;6.614;2022-09-09T04:19:05;14.90;99.90
52127;DHT22;38120;53.176;6.614;2022-09-09T04:21:32;14.90;99.90
52127;DHT22;38120;53.176;6.614;2022-09-09T04:23:58;14.90;99.90
52127;DHT22;38120;53.176;6.614;2022-09-09T04:26:23;14.90;99.90
52127;DHT22;38120;53.176;6.614;2022-09-09T04:28:49;14.90;99.90
52127;DHT22;38120;53.176;6.614;2022-09-09T04:31:20;14.90;99.90
52127;DHT22;38120;53.176;6.614;2022-09-09T04:33:49;14.90;99.90
52127;DHT22;38120;53.176;6.614;2022-09-09T04:36:15;14.90;99.90
52127;DHT22;38120;53.176;6.614;2022-09-09T04:38:40;14.90;99.90
52127;DHT22;38120;53.176;6.614;2022-09-09T04:41:07;14.90;99.90
52127;DHT22;38120;53.176;6.614;2022-09-09T04:43:33;14.90;99.90
52127;DHT22;38120;53.176;6.614;2022-09-09T04:46:00;14.90;99.90
52127;DHT22;38120;53.176;6.614;2022-09-09T04:48:26;14.90;99.90
52127;DHT22;38120;53.176;6.614;2022-09-09T04:51:01;14.90;99.90
52127;DHT22;38120;53.176;6.614;2022-09-09T04:53:27;14.90;99.90
52127;DHT22;38120;53.176;6.614;2022-09-09T04:56:07;14.90;99.90
52127;DHT22;38120;53.176;6.614;2022-09-09T04:58:33;14.80;99.90
52127;DHT22;38120;53.176;6.614;2022-09-09T05:01:11;15.50;99.90
52127;DHT22;38120;53.176;6.614;2022-09-09T05:03:37;14.80;99.90
52127;DHT22;38120;53.176;6.614;2022-09-09T05:06:15;14.80;99.90
52127;DHT22;38120;53.176;6.614;2022-09-09T05:08:42;14.80;99.90
52127;DHT22;38120;53.176;6.614;2022-09-09T05:11:22;14.80;99.90
52127;DHT22;38120;53.176;6.614;2022-09-09T05:13:52;14.80;99.90
52127;DHT22;38120;53.176;6.614;2022-09-09T05:16:18;14.70;99.90
52127;DHT22;38120;53.176;6.614;2022-09-09T05:18:44;14.70;99.90
52127;DHT22;38120;53.176;6.614;2022-09-09T05:21:12;14.70;99.90
52127;DHT22;38120;53.176;6.614;2022-09-09T05:23:38;14.70;99.90
52127;DHT22;38120;53.176;6.614;2022-09-09T05:26:04;14.60;99.90
52127;DHT22;38120;53.176;6.614;2022-09-09T05:28:31;14.70;99.90
52127;DHT22;38120;53.176;6.614;2022-09-09T05:31:01;14.70;99.90
52127;DHT22;38120;53.176;6.614;2022-09-09T05:33:29;14.70;99.90
52127;DHT22;38120;53.176;6.614;2022-09-09T05:36:06;14.70;99.90
52127;DHT22;38120;53.176;6.614;2022-09-09T05:38:34;14.70;99.90
52127;DHT22;38120;53.176;6.614;2022-09-09T05:41:01;14.60;99.90
52127;DHT22;38120;53.176;6.614;2022-09-09T05:43:28;14.60;99.90
52127;DHT22;38120;53.176;6.614;2022-09-09T05:48:42;14.70;99.90
52127;DHT22;38120;53.176;6.614;2022-09-09T05:51:13;14.70;99.90
52127;DHT22;38120;53.176;6.614;2022-09-09T05:53:41;14.70;99.90
52127;DHT22;38120;53.176;6.614;2022-09-09T05:56:18;14.70;99.90
52127;DHT22;38120;53.176;6.614;2022-09-09T05:58:44;14.70;99.90
52127;DHT22;38120;53.176;6.614;2022-09-09T06:01:15;14.70;99.90
52127;DHT22;38120;53.176;6.614;2022-09-09T06:03:42;14.70;99.90
52127;DHT22;38120;53.176;6.614;2022-09-09T06:06:11;14.80;99.90
52127;DHT22;38120;53.176;6.614;2022-09-09T06:08:39;14.70;99.90
52127;DHT22;38120;53.176;6.614;2022-09-09T06:11:08;14.70;99.90
52127;DHT22;38120;53.176;6.614;2022-09-09T06:13:35;14.80;99.90
52127;DHT22;38120;53.176;6.614;2022-09-09T06:16:03;14.80;99.90
52127;DHT22;38120;53.176;6.614;2022-09-09T06:18:29;14.70;99.90
52127;DHT22;38120;53.176;6.614;2022-09-09T06:21:04;14.80;99.90
52127;DHT22;38120;53.176;6.614;2022-09-09T06:23:30;14.70;99.90
52127;DHT22;38120;53.176;6.614;2022-09-09T06:26:16;14.70;99.90
52127;DHT22;38120;53.176;6.614;2022-09-09T06:28:46;14.70;99.90
52127;DHT22;38120;53.176;6.614;2022-09-09T06:31:14;14.70;99.90
52127;DHT22;38120;53.176;6.614;2022-09-09T06:33:41;14.80;99.90
52127;DHT22;38120;53.176;6.614;2022-09-09T06:36:14;14.80;99.90
52127;DHT22;38120;53.176;6.614;2022-09-09T06:38:44;14.70;99.90
52127;DHT22;38120;53.176;6.614;2022-09-09T06:41:10;14.80;99.90
52127;DHT22;38120;53.176;6.614;2022-09-09T06:43:37;14.80;99.90
52127;DHT22;38120;53.176;6.614;2022-09-09T06:46:10;14.90;99.90
52127;DHT22;38120;53.176;6.614;2022-09-09T06:48:36;14.80;99.90
52127;DHT22;38120;53.176;6.614;2022-09-09T06:51:07;14.90;99.90
52127;DHT22;38120;53.176;6.614;2022-09-09T06:53:34;14.90;99.90
52127;DHT22;38120;53.176;6.614;2022-09-09T06:56:22;14.90;99.90
52127;DHT22;38120;53.176;6.614;2022-09-09T06:58:50;15.00;99.90
52127;DHT22;38120;53.176;6.614;2022-09-09T07:01:21;15.00;99.90
52127;DHT22;38120;53.176;6.614;2022-09-09T07:03:50;15.10;99.90
52127;DHT22;38120;53.176;6.614;2022-09-09T07:06:25;15.10;99.90
52127;DHT22;38120;53.176;6.614;2022-09-09T07:08:52;15.20;99.90
52127;DHT22;38120;53.176;6.614;2022-09-09T07:11:20;15.20;99.90
52127;DHT22;38120;53.176;6.614;2022-09-09T07:13:47;15.20;99.90
52127;DHT22;38120;53.176;6.614;2022-09-09T07:16:16;15.20;99.90
52127;DHT22;38120;53.176;6.614;2022-09-09T07:18:43;15.20;99.90
52127;DHT22;38120;53.176;6.614;2022-09-09T07:21:13;15.30;99.90
52127;DHT22;38120;53.176;6.614;2022-09-09T07:23:40;15.30;99.90
52127;DHT22;38120;53.176;6.614;2022-09-09T07:26:11;15.30;99.90
52127;DHT22;38120;53.176;6.614;2022-09-09T07:28:38;15.30;99.90
52127;DHT22;38120;53.176;6.614;2022-09-09T07:31:05;15.30;99.90
52127;DHT22;38120;53.176;6.614;2022-09-09T07:33:34;15.40;99.90
52127;DHT22;38120;53.176;6.614;2022-09-09T07:36:07;15.50;99.90
52127;DHT22;38120;53.176;6.614;2022-09-09T07:38:45;15.50;99.90
52127;DHT22;38120;53.176;6.614;2022-09-09T07:41:26;15.60;99.90
52127;DHT22;38120;53.176;6.614;2022-09-09T07:43:53;15.70;99.90
52127;DHT22;38120;53.176;6.614;2022-09-09T07:46:22;15.70;99.90
52127;DHT22;38120;53.176;6.614;2022-09-09T07:48:51;15.70;99.90
52127;DHT22;38120;53.176;6.614;2022-09-09T07:51:19;15.80;99.90
52127;DHT22;38120;53.176;6.614;2022-09-09T07:53:47;15.80;99.90
52127;DHT22;38120;53.176;6.614;2022-09-09T07:56:15;15.80;99.90
52127;DHT22;38120;53.176;6.614;2022-09-09T07:58:44;15.90;99.90
52127;DHT22;38120;53.176;6.614;2022-09-09T08:01:16;15.90;99.90
52127;DHT22;38120;53.176;6.614;2022-09-09T08:03:44;15.90;99.90
52127;DHT22;38120;53.176;6.614;2022-09-09T08:06:10;16.00;99.90
52127;DHT22;38120;53.176;6.614;2022-09-09T08:08:38;16.10;99.90
52127;DHT22;38120;53.176;6.614;2022-09-09T08:11:14;16.20;99.90
52127;DHT22;38120;53.176;6.614;2022-09-09T08:13:41;16.20;99.90
52127;DHT22;38120;53.176;6.614;2022-09-09T08:16:16;16.30;99.90
52127;DHT22;38120;53.176;6.614;2022-09-09T08:18:42;16.30;99.90
52127;DHT22;38120;53.176;6.614;2022-09-09T08:21:23;16.50;99.90
52127;DHT22;38120;53.176;6.614;2022-09-09T08:23:51;16.70;99.90
52127;DHT22;38120;53.176;6.614;2022-09-09T08:26:20;16.80;99.90
52127;DHT22;38120;53.176;6.614;2022-09-09T08:28:50;16.90;99.90
52127;DHT22;38120;53.176;6.614;2022-09-09T08:31:35;16.80;99.90
52127;DHT22;38120;53.176;6.614;2022-09-09T08:34:03;16.80;99.90
52127;DHT22;38120;53.176;6.614;2022-09-09T08:36:32;16.80;99.90
52127;DHT22;38120;53.176;6.614;2022-09-09T08:39:03;16.90;99.90
52127;DHT22;38120;53.176;6.614;2022-09-09T08:52:56;17.00;99.90
52127;DHT22;38120;53.176;6.614;2022-09-09T08:55:39;16.90;99.90
52127;DHT22;38120;53.176;6.614;2022-09-09T08:58:33;16.90;99.90
52127;DHT22;38120;53.176;6.614;2022-09-09T09:04:00;17.20;99.90
52127;DHT22;38120;53.176;6.614;2022-09-09T09:06:35;17.10;99.90
52127;DHT22;38120;53.176;6.614;2022-09-09T09:11:57;17.20;99.90
52127;DHT22;38120;53.176;6.614;2022-09-09T09:14:30;17.20;99.90
52127;DHT22;38120;53.176;6.614;2022-09-09T09:17:06;17.20;99.90
52127;DHT22;38120;53.176;6.614;2022-09-09T09:19:35;17.20;99.90
52127;DHT22;38120;53.176;6.614;2022-09-09T09:22:16;17.30;99.90
52127;DHT22;38120;53.176;6.614;2022-09-09T09:24:53;17.40;99.90
52127;DHT22;38120;53.176;6.614;2022-09-09T09:27:41;17.40;99.90
52127;DHT22;38120;53.176;6.614;2022-09-09T09:30:19;17.30;99.90
52127;DHT22;38120;53.176;6.614;2022-09-09T09:33:24;17.60;99.90
52127;DHT22;38120;53.176;6.614;2022-09-09T09:35:52;17.90;99.90
52127;DHT22;38120;53.176;6.614;2022-09-09T09:38:24;18.00;99.90
52127;DHT22;38120;53.176;6.614;2022-09-09T09:40:58;18.00;99.90
52127;DHT22;38120;53.176;6.614;2022-09-09T09:43:35;17.90;99.90
52127;DHT22;38120;53.176;6.614;2022-09-09T09:46:04;17.90;99.90
52127;DHT22;38120;53.176;6.614;2022-09-09T09:48:30;17.80;99.90
52127;DHT22;38120;53.176;6.614;2022-09-09T09:51:10;17.90;99.90
52127;DHT22;38120;53.176;6.614;2022-09-09T09:53:39;17.90;99.90
52127;DHT22;38120;53.176;6.614;2022-09-09T09:56:08;18.00;99.90
52127;DHT22;38120;53.176;6.614;2022-09-09T09:58:51;18.00;99.90
52127;DHT22;38120;53.176;6.614;2022-09-09T10:01:27;18.00;99.90
52127;DHT22;38120;53.176;6.614;2022-09-09T10:03:58;18.10;99.90
52127;DHT22;38120;53.176;6.614;2022-09-09T10:08:59;18.20;99.90
52127;DHT22;38120;53.176;6.614;2022-09-09T10:17:49;19.00;99.90
52127;DHT22;38120;53.176;6.614;2022-09-09T10:22:36;18.90;99.90
52127;DHT22;38120;53.176;6.614;2022-09-09T10:33:13;19.00;99.90
52127;DHT22;38120;53.176;6.614;2022-09-09T10:36:02;18.80;99.90
52127;DHT22;38120;53.176;6.614;2022-09-09T10:38:39;18.60;99.90
52127;DHT22;38120;53.176;6.614;2022-09-09T10:41:16;19.00;99.90
52127;DHT22;38120;53.176;6.614;2022-09-09T10:49:13;18.70;99.90
52127;DHT22;38120;53.176;6.614;2022-09-09T10:54:42;18.60;99.90
52127;DHT22;38120;53.176;6.614;2022-09-09T10:59:53;18.90;99.90
52127;DHT22;38120;53.176;6.614;2022-09-09T11:02:30;18.90;99.90
52127;DHT22;38120;53.176;6.614;2022-09-09T11:05:15;18.70;99.90
52127;DHT22;38120;53.176;6.614;2022-09-09T11:08:00;18.70;99.90
52127;DHT22;38120;53.176;6.614;2022-09-09T11:16:00;18.70;99.90
52127;DHT22;38120;53.176;6.614;2022-09-09T11:18:28;18.70;99.90
52127;DHT22;38120;53.176;6.614;2022-09-09T11:21:02;18.70;99.90
52127;DHT22;38120;53.176;6.614;2022-09-09T11:23:55;19.10;99.90
52127;DHT22;38120;53.176;6.614;2022-09-09T11:26:33;19.60;99.90
52127;DHT22;38120;53.176;6.614;2022-09-09T11:29:08;19.80;99.90
52127;DHT22;38120;53.176;6.614;2022-09-09T11:39:51;20.20;99.90
52127;DHT22;38120;53.176;6.614;2022-09-09T11:42:22;20.20;99.90
52127;DHT22;38120;53.176;6.614;2022-09-09T11:44:48;19.90;99.90
52127;DHT22;38120;53.176;6.614;2022-09-09T11:47:29;19.80;99.90
52127;DHT22;38120;53.176;6.614;2022-09-09T11:52:43;19.70;99.90
52127;DHT22;38120;53.176;6.614;2022-09-09T11:55:27;19.80;99.90
52127;DHT22;38120;53.176;6.614;2022-09-09T12:00:39;20.10;99.90
52127;DHT22;38120;53.176;6.614;2022-09-09T12:03:34;20.00;99.90
52127;DHT22;38120;53.176;6.614;2022-09-09T12:06:31;19.80;99.90
52127;DHT22;38120;53.176;6.614;2022-09-09T12:11:32;20.30;99.90
52127;DHT22;38120;53.176;6.614;2022-09-09T12:13:59;20.80;99.90
52127;DHT22;38120;53.176;6.614;2022-09-09T12:19:19;21.10;99.90
52127;DHT22;38120;53.176;6.614;2022-09-09T12:28:05;20.40;99.90
52127;DHT22;38120;53.176;6.614;2022-09-09T12:30:59;20.30;99.90
52127;DHT22;38120;53.176;6.614;2022-09-09T12:33:34;20.00;99.90
52127;DHT22;38120;53.176;6.614;2022-09-09T12:36:01;19.90;99.90
52127;DHT22;38120;53.176;6.614;2022-09-09T12:38:36;19.80;99.90
52127;DHT22;38120;53.176;6.614;2022-09-09T12:41:02;19.60;99.90
52127;DHT22;38120;53.176;6.614;2022-09-09T12:43:29;19.60;99.90
52127;DHT22;38120;53.176;6.614;2022-09-09T12:46:03;20.00;99.90
52127;DHT22;38120;53.176;6.614;2022-09-09T12:48:38;19.90;99.90
52127;DHT22;38120;53.176;6.614;2022-09-09T12:51:07;20.00;99.90
52127;DHT22;38120;53.176;6.614;2022-09-09T12:53:41;20.60;99.90
52127;DHT22;38120;53.176;6.614;2022-09-09T12:56:09;20.10;99.90
52127;DHT22;38120;53.176;6.614;2022-09-09T12:58:46;20.10;99.90
52127;DHT22;38120;53.176;6.614;2022-09-09T13:01:31;20.30;99.90
52127;DHT22;38120;53.176;6.614;2022-09-09T13:03:58;20.60;99.90
52127;DHT22;38120;53.176;6.614;2022-09-09T13:06:32;20.60;99.90
52127;DHT22;38120;53.176;6.614;2022-09-09T13:09:00;20.70;99.90
52127;DHT22;38120;53.176;6.614;2022-09-09T13:11:30;21.00;99.90
52127;DHT22;38120;53.176;6.614;2022-09-09T13:13:57;20.90;99.90
52127;DHT22;38120;53.176;6.614;2022-09-09T13:16:29;20.70;99.90
52127;DHT22;38120;53.176;6.614;2022-09-09T13:19:10;21.00;99.90
52127;DHT22;38120;53.176;6.614;2022-09-09T13:21:39;21.40;99.90
52127;DHT22;38120;53.176;6.614;2022-09-09T13:24:19;21.40;99.90
52127;DHT22;38120;53.176;6.614;2022-09-09T13:26:55;21.00;99.90
52127;DHT22;38120;53.176;6.614;2022-09-09T13:29:22;20.80;99.90
52127;DHT22;38120;53.176;6.614;2022-09-09T13:31:48;20.60;99.90
52127;DHT22;38120;53.176;6.614;2022-09-09T13:34:31;20.40;99.90
52127;DHT22;38120;53.176;6.614;2022-09-09T13:37:20;20.60;99.90
52127;DHT22;38120;53.176;6.614;2022-09-09T13:39:52;20.50;99.90
52127;DHT22;38120;53.176;6.614;2022-09-09T13:42:28;20.30;99.90
52127;DHT22;38120;53.176;6.614;2022-09-09T13:44:55;20.10;99.90
52127;DHT22;38120;53.176;6.614;2022-09-09T13:47:28;20.00;99.90
52127;DHT22;38120;53.176;6.614;2022-09-09T13:49:54;19.90;99.90
52127;DHT22;38120;53.176;6.614;2022-09-09T13:52:20;19.90;99.90
52127;DHT22;38120;53.176;6.614;2022-09-09T13:54:51;20.10;99.90
52127;DHT22;38120;53.176;6.614;2022-09-09T13:57:19;20.60;99.90
52127;DHT22;38120;53.176;6.614;2022-09-09T13:59:46;21.00;99.90
52127;DHT22;38120;53.176;6.614;2022-09-09T14:02:13;21.20;99.90
52127;DHT22;38120;53.176;6.614;2022-09-09T14:04:39;21.20;99.90
52127;DHT22;38120;53.176;6.614;2022-09-09T14:07:12;21.20;99.90
52127;DHT22;38120;53.176;6.614;2022-09-09T14:09:39;21.20;99.90
52127;DHT22;38120;53.176;6.614;2022-09-09T14:12:04;20.70;99.90
52127;DHT22;38120;53.176;6.614;2022-09-09T14:14:30;20.40;99.90
52127;DHT22;38120;53.176;6.614;2022-09-09T14:16:56;20.20;99.90
52127;DHT22;38120;53.176;6.614;2022-09-09T14:19:21;20.00;99.90
52127;DHT22;38120;53.176;6.614;2022-09-09T14:21:48;20.00;99.90
52127;DHT22;38120;53.176;6.614;2022-09-09T14:24:14;20.00;99.90
52127;DHT22;38120;53.176;6.614;2022-09-09T14:26:39;20.20;99.90
52127;DHT22;38120;53.176;6.614;2022-09-09T14:29:06;20.10;99.90
52127;DHT22;38120;53.176;6.614;2022-09-09T14:31:31;20.10;99.90
52127;DHT22;38120;53.176;6.614;2022-09-09T14:33:58;20.00;99.90
52127;DHT22;38120;53.176;6.614;2022-09-09T14:36:24;19.90;99.90
52127;DHT22;38120;53.176;6.614;2022-09-09T14:38:50;19.70;99.90
52127;DHT22;38120;53.176;6.614;2022-09-09T14:41:18;19.60;99.90
52127;DHT22;38120;53.176;6.614;2022-09-09T14:43:45;19.60;99.90
52127;DHT22;38120;53.176;6.614;2022-09-09T14:46:13;19.30;99.90
52127;DHT22;38120;53.176;6.614;2022-09-09T14:48:39;18.70;99.90
52127;DHT22;38120;53.176;6.614;2022-09-09T14:51:20;18.50;99.90
52127;DHT22;38120;53.176;6.614;2022-09-09T14:53:48;18.50;99.90
52127;DHT22;38120;53.176;6.614;2022-09-09T14:56:17;18.40;99.90
52127;DHT22;38120;53.176;6.614;2022-09-09T14:58:44;18.30;99.90
52127;DHT22;38120;53.176;6.614;2022-09-09T15:01:19;18.40;99.90
52127;DHT22;38120;53.176;6.614;2022-09-09T15:03:53;18.60;99.90
52127;DHT22;38120;53.176;6.614;2022-09-09T15:06:20;18.90;99.90
52127;DHT22;38120;53.176;6.614;2022-09-09T15:08:47;19.20;99.90
52127;DHT22;38120;53.176;6.614;2022-09-09T15:11:13;19.60;99.90
52127;DHT22;38120;53.176;6.614;2022-09-09T15:13:40;19.70;99.90
52127;DHT22;38120;53.176;6.614;2022-09-09T15:16:06;19.60;99.90
52127;DHT22;38120;53.176;6.614;2022-09-09T15:18:32;19.50;99.90
52127;DHT22;38120;53.176;6.614;2022-09-09T15:21:02;19.30;99.90
52127;DHT22;38120;53.176;6.614;2022-09-09T15:23:33;19.10;99.90
52127;DHT22;38120;53.176;6.614;2022-09-09T15:25:59;19.00;99.90
52127;DHT22;38120;53.176;6.614;2022-09-09T15:28:25;19.00;99.90
52127;DHT22;38120;53.176;6.614;2022-09-09T15:30:51;18.90;99.90
52127;DHT22;38120;53.176;6.614;2022-09-09T15:33:20;19.00;99.90
52127;DHT22;38120;53.176;6.614;2022-09-09T15:35:45;19.30;99.90
52127;DHT22;38120;53.176;6.614;2022-09-09T15:38:11;19.20;99.90
52127;DHT22;38120;53.176;6.614;2022-09-09T15:40:38;19.60;99.90
52127;DHT22;38120;53.176;6.614;2022-09-09T15:43:04;19.80;99.90
52127;DHT22;38120;53.176;6.614;2022-09-09T15:45:30;19.90;99.90
52127;DHT22;38120;53.176;6.614;2022-09-09T15:47:57;20.00;99.90
52127;DHT22;38120;53.176;6.614;2022-09-09T15:50:23;20.10;99.90
52127;DHT22;38120;53.176;6.614;2022-09-09T15:52:48;19.80;99.90
52127;DHT22;38120;53.176;6.614;2022-09-09T15:55:14;19.90;99.90
52127;DHT22;38120;53.176;6.614;2022-09-09T15:57:40;19.80;99.90
52127;DHT22;38120;53.176;6.614;2022-09-09T16:00:06;19.60;99.90
52127;DHT22;38120;53.176;6.614;2022-09-09T16:02:32;19.40;99.90
52127;DHT22;38120;53.176;6.614;2022-09-09T16:04:58;19.20;99.90
52127;DHT22;38120;53.176;6.614;2022-09-09T16:07:23;19.00;99.90
52127;DHT22;38120;53.176;6.614;2022-09-09T16:09:49;18.90;99.90
52127;DHT22;38120;53.176;6.614;2022-09-09T16:12:18;18.90;99.90
52127;DHT22;38120;53.176;6.614;2022-09-09T16:14:44;18.80;99.90
52127;DHT22;38120;53.176;6.614;2022-09-09T16:17:10;18.70;99.90
52127;DHT22;38120;53.176;6.614;2022-09-09T16:19:36;18.60;99.90
52127;DHT22;38120;53.176;6.614;2022-09-09T16:22:02;18.50;99.90
52127;DHT22;38120;53.176;6.614;2022-09-09T16:24:29;18.50;99.90
52127;DHT22;38120;53.176;6.614;2022-09-09T16:26:54;18.20;99.90
52127;DHT22;38120;53.176;6.614;2022-09-09T16:29:21;18.30;99.90
52127;DHT22;38120;53.176;6.614;2022-09-09T16:31:47;18.30;99.90
52127;DHT22;38120;53.176;6.614;2022-09-09T16:34:14;18.20;99.90
52127;DHT22;38120;53.176;6.614;2022-09-09T16:36:40;18.10;99.90
52127;DHT22;38120;53.176;6.614;2022-09-09T16:39:07;18.10;99.90
52127;DHT22;38120;53.176;6.614;2022-09-09T16:41:34;18.10;99.90
52127;DHT22;38120;53.176;6.614;2022-09-09T16:44:01;18.00;99.90
52127;DHT22;38120;53.176;6.614;2022-09-09T16:46:30;17.90;99.90
52127;DHT22;38120;53.176;6.614;2022-09-09T16:48:57;17.90;99.90
52127;DHT22;38120;53.176;6.614;2022-09-09T16:51:25;17.80;99.90
52127;DHT22;38120;53.176;6.614;2022-09-09T16:53:51;17.80;99.90
52127;DHT22;38120;53.176;6.614;2022-09-09T16:56:18;17.70;99.90
52127;DHT22;38120;53.176;6.614;2022-09-09T16:58:48;17.60;99.90
52127;DHT22;38120;53.176;6.614;2022-09-09T17:01:15;17.70;99.90
52127;DHT22;38120;53.176;6.614;2022-09-09T17:03:41;17.70;99.90
52127;DHT22;38120;53.176;6.614;2022-09-09T17:06:10;17.60;99.90
52127;DHT22;38120;53.176;6.614;2022-09-09T17:08:37;17.60;99.90
52127;DHT22;38120;53.176;6.614;2022-09-09T17:11:02;17.70;99.90
52127;DHT22;38120;53.176;6.614;2022-09-09T17:13:29;17.60;99.90
52127;DHT22;38120;53.176;6.614;2022-09-09T17:15:56;17.60;99.90
52127;DHT22;38120;53.176;6.614;2022-09-09T17:18:22;17.60;99.90
52127;DHT22;38120;53.176;6.614;2022-09-09T17:20:48;17.60;99.90
52127;DHT22;38120;53.176;6.614;2022-09-09T17:23:13;17.60;99.90
52127;DHT22;38120;53.176;6.614;2022-09-09T17:25:41;17.60;99.90
52127;DHT22;38120;53.176;6.614;2022-09-09T17:28:06;17.50;99.90
52127;DHT22;38120;53.176;6.614;2022-09-09T17:30:35;17.50;99.90
52127;DHT22;38120;53.176;6.614;2022-09-09T17:33:02;17.50;99.90
52127;DHT22;38120;53.176;6.614;2022-09-09T17:35:29;17.50;99.90
52127;DHT22;38120;53.176;6.614;2022-09-09T17:37:55;17.40;99.90
52127;DHT22;38120;53.176;6.614;2022-09-09T17:40:21;17.40;99.90
52127;DHT22;38120;53.176;6.614;2022-09-09T17:42:47;17.50;99.90
52127;DHT22;38120;53.176;6.614;2022-09-09T17:45:13;17.50;99.90
52127;DHT22;38120;53.176;6.614;2022-09-09T17:47:39;17.50;99.90